Flight Track Log - Related Links

Times and Time Zones

All times are in EDT time to prevent confusion due to time zone crossing. See the N826CH flight status page for this flight to view local times or setup timezone preferences in your user account.

Time Position Orientation Groundspeed Altitude Reporting Facility
EDT Latitude Longitude Course Direction KTS MPH feet Rate Location/Type
Sun 02:44:13 PM 45.2614 -122.8281 170° South 137 158 2,400  Level Seattle Center
Sun 02:44:49 PM 45.2764 -122.8497 315° West 131 151 3,100 928 Climbing Seattle Center
Sun 02:45:50 PM 45.3011 -122.8858 314° West 121 139 3,900 805 Climbing Seattle Center
Sun 02:46:11 PM 45.3106 -122.8972 320° Northwest 126 145 4,200 439 Climbing Seattle Center
Sun 02:47:12 PM 45.2936 -122.9033 194° South 137 158 4,500 295 Climbing Seattle Center
Sun 02:48:00 PM 44.9561 -122.7030 172° South  Level Estimated
Sun 02:48:13 PM 45.2625 -122.9058 183° South 115 132 4,800  Level Seattle Center
Sun 02:49:00 PM 44.9076 -122.6919 170° South  Level Estimated
Sun 02:49:14 PM 45.2272 -122.9183 194° South 127 146 5,200  Level Seattle Center
Sun 02:50:15 PM 45.1911 -122.9342 197° South 134 154 6,300 934 Climbing Seattle Center
Sun 02:51:16 PM 45.1536 -122.9364 182° South 137 158 7,100 639 Climbing Seattle Center
Sun 02:52:17 PM 45.1106 -122.9214 166° South 154 177 7,600 541 Climbing Seattle Center
Sun 02:53:18 PM 45.0661 -122.9053 166° South 162 186 8,200 541 Climbing Seattle Center
Sun 02:54:19 PM 45.0203 -122.8886 166° South 168 193 8,700 492 Climbing Seattle Center
Sun 02:55:20 PM 44.9706 -122.8758 170° South 176 203 9,200 492 Climbing Seattle Center
Sun 02:56:21 PM 44.9214 -122.8619 169° South 179 206 9,700 492 Climbing Seattle Center
Sun 02:57:22 PM 44.8711 -122.8489 170° South 182 209 10,200 492 Climbing Seattle Center
Sun 02:58:23 PM 44.8228 -122.8369 170° South 179 206 10,700 492 Climbing Seattle Center
Sun 02:59:24 PM 44.7783 -122.8250 169° South 169 194 11,200 590 Climbing Seattle Center
Sun 03:00:25 PM 44.7250 -122.8106 169° South 163 188 11,900 639 Climbing Seattle Center
Sun 03:01:26 PM 44.6797 -122.8000 171° South 165 190 12,500 541 Climbing Seattle Center
Sun 03:02:27 PM 44.6344 -122.7875 169° South 166 191 13,000 246 Climbing Seattle Center
Sun 03:03:28 PM 44.5853 -122.7750 170° South 178 205 13,000  Level Seattle Center
Sun 03:04:29 PM 44.5300 -122.7600 169° South 196 226 13,000  Level Seattle Center
Sun 03:05:30 PM 44.4786 -122.7461 169° South 192 221 13,000  Level Seattle Center
Sun 03:06:31 PM 44.4258 -122.7344 171° South 191 220 13,000  Level Seattle Center
Sun 03:07:32 PM 44.3717 -122.7197 169° South 196 226 13,000  Level Seattle Center
Sun 03:08:33 PM 44.3128 -122.7061 171° South 195 224 13,000  Level Seattle Center
Sun 03:09:34 PM 44.2583 -122.6914 169° South 199 229 13,000  Level Seattle Center
Sun 03:10:35 PM 44.2036 -122.6781 170° South 200 230 13,000  Level Seattle Center
Sun 03:11:36 PM 44.1475 -122.6636 170° South 204 235 13,000  Level Seattle Center
Sun 03:12:37 PM 44.0931 -122.6500 170° South 200 230 13,000  Level Seattle Center
Sun 03:13:38 PM 44.0361 -122.6361 170° South 205 236 13,000  Level Seattle Center
Sun 03:14:39 PM 43.9800 -122.6222 170° South 205 236 13,000  Level Seattle Center
Sun 03:15:40 PM 43.9239 -122.6067 169° South 205 236 13,000  Level Seattle Center
Sun 03:16:41 PM 43.8686 -122.5931 170° South 203 234 13,000  Level Seattle Center
Sun 03:17:42 PM 43.8119 -122.5792 170° South 205 236 13,000 49 Level Seattle Center
Sun 03:18:43 PM 43.7556 -122.5661 171° South 205 236 13,100  Climbing Seattle Center
Sun 03:19:44 PM 43.6983 -122.5517 170° South 208 239 13,000 -49 Descending Seattle Center
Sun 03:20:45 PM 43.6422 -122.5381 170° South 205 236 13,000  Level Seattle Center
Sun 03:21:46 PM 43.5739 -122.5206 169° South 208 239 13,000  Level Seattle Center
Sun 03:22:46 PM 43.5178 -122.5067 170° South 206 237 13,000  Level Seattle Center
Sun 03:23:47 PM 43.4622 -122.4936 170° South 204 235 13,000  Level Seattle Center
Sun 03:24:48 PM 43.4056 -122.4797 170° South 205 236 13,000  Level Seattle Center
Sun 03:25:49 PM 43.3489 -122.4667 170° South 206 237 13,000  Level Seattle Center
Sun 03:26:50 PM 43.2931 -122.4519 169° South 204 235 13,000  Level Seattle Center
Sun 03:28:00 PM 43.2352 -122.4378 172° South  Level Estimated
Sun 03:28:52 PM 43.1819 -122.4247 172° South 204 235 13,000  Level Seattle Center
Sun 03:29:53 PM 43.1264 -122.4122 171° South 202 232 13,000  Level Seattle Center
Sun 03:30:54 PM 43.0708 -122.3969 169° South 203 234 13,000 49 Level Seattle Center
Sun 03:31:55 PM 43.0144 -122.3839 170° South 204 235 13,100 49 Climbing Seattle Center
Sun 03:32:56 PM 42.9567 -122.3728 172° South 207 238 13,100  Level Seattle Center
Sun 03:33:57 PM 42.9011 -122.3594 170° South 201 231 13,100  Level Seattle Center
Sun 03:34:58 PM 42.8431 -122.3458 170° South 210 242 13,100  Level Seattle Center
Sun 03:35:59 PM 42.7858 -122.3308 169° South 207 238 13,100 -49 Level Seattle Center
Sun 03:37:00 PM 42.7264 -122.3167 170° South 206 237 13,000 -49 Descending Seattle Center
Sun 03:38:01 PM 42.6711 -122.3036 170° South 202 232 13,000  Level Seattle Center
Sun 03:39:02 PM 42.6153 -122.2892 169° South 204 235 13,000  Level Seattle Center
Sun 03:40:03 PM 42.5592 -122.2764 170° South 204 235 13,000  Level Seattle Center
Sun 03:41:04 PM 42.4922 -122.2597 170° South 204 235 13,000  Level Seattle Center
Sun 03:42:05 PM 42.4367 -122.2389 165° South 205 236 13,000  Level Seattle Center
Sun 03:43:06 PM 42.3817 -122.2197 166° South 206 237 13,000  Level Seattle Center
Sun 03:44:07 PM 42.3267 -122.1997 165° South 205 236 13,000  Level Seattle Center
Sun 03:45:08 PM 42.2717 -122.1803 165° South 205 236 13,000  Level Seattle Center
Sun 03:46:09 PM 42.2175 -122.1614 166° South 204 235 13,000  Level Seattle Center
Sun 03:47:09 PM 42.1619 -122.1411 165° South 208 239 13,000  Level Seattle Center
Sun 03:48:10 PM 42.1089 -122.1231 166° South 204 235 13,000  Level Seattle Center
Sun 03:49:11 PM 42.0558 -122.1044 165° South 201 231 13,000  Level Seattle Center
Sun 03:50:12 PM 42.0033 -122.0861 165° South 199 229 13,000 -49 Level Seattle Center
Sun 03:51:13 PM 41.9400 -122.0658 167° South 197 227 12,900  Descending Seattle Center
Sun 03:52:14 PM 41.8867 -122.0483 166° South 198 228 13,000 49 Climbing Seattle Center
Sun 03:53:15 PM 41.8333 -122.0300 166° South 199 229 13,000  Level Seattle Center
Sun 03:54:16 PM 41.7792 -122.0119 166° South 200 230 13,000 -74 Level Seattle Center
Sun 03:55:58 PM 41.6925 -121.9956 172° South 198 228 12,800  Descending Oakland Center
Sun 03:56:18 PM 41.6708 -121.9911 171° South 198 228 13,000 148 Climbing Seattle Center
Sun 03:57:19 PM 41.6167 -121.9797 171° South 198 228 13,000  Level Seattle Center
Sun 03:58:19 PM 41.5608 -121.9678 171° South 200 230 13,000  Level Seattle Center
Sun 03:59:21 PM 41.5058 -121.9572 172° South 201 231 13,000  Level Seattle Center
Sun 04:00:22 PM 41.4506 -121.9458 171° South 200 230 13,000  Level Seattle Center
Sun 04:01:23 PM 41.3950 -121.9339 171° South 201 231 13,000 -49 Level Seattle Center
Sun 04:02:24 PM 41.3406 -121.9239 172° South 199 229 12,900 -49 Descending Seattle Center
Sun 04:03:25 PM 41.2719 -121.9103 172° South 205 236 12,900  Level Seattle Center
Sun 04:04:26 PM 41.2164 -121.8975 170° South 204 235 12,900  Level Seattle Center
Sun 04:05:26 PM 41.1622 -121.8864 171° South 200 230 12,900 -56 Level Seattle Center
Sun 04:06:13 PM 41.1219 -121.8783 171° South 199 229 12,800 -56 Descending Oakland Center
Sun 04:07:14 PM 41.0669 -121.8675 172° South 199 229 12,800  Level Oakland Center
Sun 04:08:16 PM 41.0139 -121.8561 171° South 196 226 12,800  Level Oakland Center
Sun 04:09:17 PM 40.9611 -121.8456 171° South 193 222 12,800  Level Oakland Center
Sun 04:10:18 PM 40.9072 -121.8356 172° South 195 224 12,800  Level Oakland Center
Sun 04:11:20 PM 40.8417 -121.8219 171° South 197 227 12,800  Level Oakland Center
Sun 04:12:21 PM 40.7883 -121.8094 170° South 196 226 12,800  Level Oakland Center
Sun 04:13:23 PM 40.7347 -121.7994 172° South 195 224 12,800  Level Oakland Center
Sun 04:14:24 PM 40.6800 -121.7894 172° South 198 228 12,800  Level Oakland Center
Sun 04:15:26 PM 40.6256 -121.7781 171° South 197 227 12,800 49 Level Oakland Center
Sun 04:16:27 PM 40.5708 -121.7678 172° South 198 228 12,900 -344 Climbing Oakland Center
Sun 04:17:28 PM 40.5133 -121.7561 171° South 203 234 12,100 -587 Descending Oakland Center
Sun 04:19:31 PM 40.3919 -121.7314 171° South 217 250 11,100 -357 Descending Oakland Center
Sun 04:20:33 PM 40.3281 -121.7186 171° South 207 238 11,000 -49 Descending Oakland Center
Sun 04:21:34 PM 40.2767 -121.7094 172° South 192 221 11,000  Level Oakland Center
Sun 04:22:36 PM 40.2250 -121.6981 170° South 188 216 11,000  Level Oakland Center
Sun 04:23:37 PM 40.1711 -121.6881 172° South 193 222 11,000  Level Oakland Center
Sun 04:24:39 PM 40.1183 -121.6769 171° South 196 226 11,000  Level Oakland Center
Sun 04:25:40 PM 40.0644 -121.6683 173° South 196 226 11,000 -49 Level Oakland Center
Sun 04:26:42 PM 40.0106 -121.6564 170° South 196 226 10,900 -390 Descending Oakland Center
Sun 04:27:43 PM 39.9536 -121.6461 172° South 203 234 10,200 -683 Descending Oakland Center
Sun 04:28:45 PM 39.8939 -121.6342 171° South 212 244 9,500 -585 Descending Oakland Center
Sun 04:29:46 PM 39.8336 -121.6236 172° South 216 249 9,000 -246 Descending Oakland Center
Sun 04:30:47 PM 39.7714 -121.6111 171° South 198 228 9,000  Level Oakland Center
Sun 04:31:49 PM 39.7203 -121.6011 171° South 187 215 9,000 49 Level Oakland Center
Sun 04:32:50 PM 39.6689 -121.5917 172° South 187 215 9,100 49 Climbing Oakland Center
Sun 04:33:52 PM 39.6169 -121.5817 172° South 188 216 9,100  Level Oakland Center
Sun 04:34:53 PM 39.5650 -121.5719 172° South 188 216 9,100 -49 Level Oakland Center
Sun 04:35:55 PM 39.5114 -121.5622 172° South 192 221 9,000 -244 Descending Oakland Center
Sun 04:36:56 PM 39.4603 -121.5489 169° South 193 222 8,600 -590 Descending Oakland Center
Sun 04:37:57 PM 39.4017 -121.5386 172° South 209 241 7,800 -780 Descending Oakland Center
Sun 04:38:59 PM 39.3339 -121.5272 173° South 207 238 7,000 -390 Descending Oakland Center
Sun 04:40:00 PM 39.2831 -121.5161 170° South 192 221 7,000  Level Oakland Center
Sun 04:41:02 PM 39.2350 -121.5075 172° South 179 206 7,000  Level Oakland Center
Sun 04:42:03 PM 39.1872 -121.4986 172° South 175 201 7,000 49 Level Oakland Center
Sun 04:43:05 PM 39.1414 -121.4900 172° South 169 194 7,100 -176 Climbing Oakland Center
Sun 04:43:45 PM 39.1000 -121.4833 173° South 205 236 6,700 -720 Descending Northern Cal TRACON
Sun 04:44:45 PM 39.0500 -121.4667 165° South 184 212 5,900 -730 Descending Northern Cal TRACON
Sun 04:45:40 PM 39.0167 -121.4667 180° South 184 212 5,300 -526 Descending Northern Cal TRACON
Sun 04:46:39 PM 38.9667 -121.4500 165° South 169 194 4,900 -550 Descending Northern Cal TRACON
Sun 04:47:40 PM 38.9167 -121.4500 180° South 179 206 4,200 -465 Descending Northern Cal TRACON
Sun 04:49:14 PM 38.8372 -121.4336 171° South 175 201 3,700 -319 Descending Oakland Center

Login

Don't have an account? Register now (free) for customized features, flight alerts, and more!